Terminal Aerodrome Forecast
Issued by NWS

Home | Current Version | Previous Version | Text Only | Print | Product List | Glossary On
Versions: 1 2 3 4 5 6 7 8 9 10 11 12 13 14 15 16 17 18 19 20 21 22 23 24
000
FTUS42 KGSP 161700
TAFAND
TAF
KAND 161723Z 1618/1718 30004KT P6SM SCT050
      TEMPO 1620/1624 VRB10G20KT 4SM TSRA BKN030CB
     FM170000 00000KT P6SM VCTS BKN050CB
     FM170400 00000KT 5SM BR SCT050
      TEMPO 1710/1713 2SM BR SCT250
     FM171300 04005KT P6SM FEW250
     FM171600 04006KT P6SM FEW040=

USA.gov is the U.S. government's official web portal to all federal, state and local government web resources and services.